Time;durP1;ratioP1;P1;durP2;ratioP2;P2;SDS_P1;SDS_P2;PMS_P1;PMS_P2;Temp;Humidity;BMP_temperature;BMP_pressure;BME280_temperature;BME280_humidity;BME280_pressure;Samples;Min_cycle;Max_cycle;Signal;HPM_P1;HPM_P2
2022/03/20 00:01:39;;;;;;;1.88;0.40;;;16.90;57.70;;;;;;10378383;28;20056;-60
2022/03/20 00:06:39;;;;;;;2.13;0.80;;;16.90;57.60;;;;;;10377934;28;20065;-59
2022/03/20 00:11:40;;;;;;;2.10;0.50;;;16.90;57.60;;;;;;10377506;28;20069;-59
2022/03/20 00:16:41;;;;;;;1.58;0.50;;;17.00;57.70;;;;;;10377536;28;20494;-59
2022/03/20 00:21:41;;;;;;;1.05;0.57;;;16.90;57.60;;;;;;10372973;28;20065;-59
2022/03/20 00:26:43;;;;;;;1.85;0.40;;;16.90;57.70;;;;;;10377080;28;20134;-59
2022/03/20 00:31:43;;;;;;;3.05;0.63;;;16.90;57.70;;;;;;10416789;28;20033;-59
2022/03/20 00:36:44;;;;;;;1.55;0.50;;;16.80;57.70;;;;;;10416765;28;20028;-59
2022/03/20 00:41:45;;;;;;;2.30;0.68;;;16.80;58.40;;;;;;10389720;28;20164;-59
2022/03/20 00:46:45;;;;;;;1.00;0.50;;;16.80;57.70;;;;;;10366472;28;20424;-59
2022/03/20 00:51:46;;;;;;;2.33;1.75;;;16.90;57.70;;;;;;10371514;28;20061;-60
2022/03/20 00:56:47;;;;;;;0.52;0.52;;;16.90;57.60;;;;;;10375751;28;20533;-59
2022/03/20 01:01:47;;;;;;;1.00;0.40;;;16.90;57.60;;;;;;10375693;28;20113;-60
2022/03/20 01:06:48;;;;;;;1.23;0.63;;;16.90;57.60;;;;;;10375515;28;20034;-60
2022/03/20 01:11:50;;;;;;;1.35;0.57;;;16.90;57.60;;;;;;10399865;28;20096;-59
2022/03/20 01:16:54;;;;;;;1.38;0.60;;;16.80;57.60;;;;;;10416191;28;20029;-59
2022/03/20 01:21:55;;;;;;;0.60;0.47;;;16.90;57.70;;;;;;10414671;28;20070;-60
2022/03/20 01:26:56;;;;;;;0.88;0.50;;;16.80;57.80;;;;;;10415490;28;20065;-59
2022/03/20 01:31:57;;;;;;;0.95;0.65;;;16.80;57.90;;;;;;10414375;28;20552;-60
2022/03/20 01:36:58;;;;;;;1.50;0.47;;;16.80;57.70;;;;;;10415099;28;20053;-59
2022/03/20 01:41:59;;;;;;;1.85;0.40;;;16.80;57.60;;;;;;10377615;28;20167;-59
2022/03/20 01:47:00;;;;;;;1.15;0.40;;;16.80;57.60;;;;;;10373777;28;20609;-60
2022/03/20 01:52:10;;;;;;;1.10;0.43;;;16.90;57.70;;;;;;10375525;28;20065;-59
2022/03/20 01:57:16;;;;;;;1.30;0.30;;;16.90;57.50;;;;;;10370614;28;20030;-59
2022/03/20 02:02:18;;;;;;;1.77;0.75;;;16.90;57.40;;;;;;10373578;28;20477;-59
2022/03/20 02:07:20;;;;;;;0.73;0.50;;;16.90;57.50;;;;;;10368901;28;20037;-59
2022/03/20 02:12:21;;;;;;;1.25;0.50;;;16.90;57.60;;;;;;10367969;28;20034;-59
2022/03/20 02:17:22;;;;;;;0.85;0.40;;;16.90;57.60;;;;;;10368695;28;20054;-59
2022/03/20 02:22:27;;;;;;;0.95;0.40;;;16.90;57.50;;;;;;10377862;28;20068;-59
2022/03/20 02:27:27;;;;;;;1.48;0.70;;;16.90;57.50;;;;;;10413465;28;20037;-59
2022/03/20 02:32:31;;;;;;;1.35;0.60;;;16.90;57.50;;;;;;10412355;28;20040;-59
2022/03/20 02:37:34;;;;;;;0.50;0.47;;;16.90;57.60;;;;;;10411794;28;20037;-59
2022/03/20 02:42:38;;;;;;;1.27;0.50;;;16.90;57.60;;;;;;10373468;28;20034;-60
2022/03/20 02:47:45;;;;;;;2.38;0.82;;;16.90;57.50;;;;;;10369444;28;20451;-60
2022/03/20 02:53:02;;;;;;;1.33;0.50;;;16.80;57.50;;;;;;10404147;28;20458;-59
2022/03/20 02:58:10;;;;;;;0.63;0.45;;;16.80;57.50;;;;;;10371829;28;20532;-59
2022/03/20 03:03:11;;;;;;;1.00;0.50;;;16.80;57.50;;;;;;10376632;28;20095;-59
2022/03/20 03:13:39;;;;;;;1.15;0.70;;;16.90;57.40;;;;;;10380466;28;20045;-60
2022/03/20 03:18:45;;;;;;;1.20;0.55;;;16.80;57.50;;;;;;10386456;28;20057;-60
2022/03/20 03:23:46;;;;;;;1.10;0.50;;;16.80;58.00;;;;;;10419777;28;20371;-60
2022/03/20 03:28:47;;;;;;;1.80;0.60;;;16.90;57.30;;;;;;10420020;28;20053;-60
2022/03/20 03:39:07;;;;;;;1.57;0.50;;;16.80;57.40;;;;;;10406017;28;20117;-59
2022/03/20 03:44:08;;;;;;;3.33;1.00;;;16.80;57.40;;;;;;10378742;28;20288;-59
2022/03/20 03:49:09;;;;;;;0.90;0.47;;;16.90;57.20;;;;;;10378549;28;20475;-60
2022/03/20 03:54:09;;;;;;;2.00;0.90;;;16.90;57.10;;;;;;10381124;28;20045;-60
2022/03/20 03:59:10;;;;;;;1.17;0.50;;;16.90;57.20;;;;;;10377973;28;20057;-59
2022/03/20 04:04:11;;;;;;;1.00;0.68;;;16.90;57.20;;;;;;10378059;28;20062;-60
2022/03/20 04:09:12;;;;;;;0.98;0.60;;;16.90;57.20;;;;;;10377708;28;20041;-59
2022/03/20 04:14:13;;;;;;;1.33;0.50;;;16.90;57.00;;;;;;10376718;28;20045;-62
2022/03/20 04:19:14;;;;;;;0.90;0.50;;;16.90;57.10;;;;;;10377443;28;20101;-60
2022/03/20 04:24:15;;;;;;;0.90;0.50;;;16.90;57.10;;;;;;10407491;28;20164;-59
2022/03/20 04:29:16;;;;;;;0.60;0.50;;;16.80;57.10;;;;;;10377182;28;20389;-59
2022/03/20 04:34:16;;;;;;;2.80;0.70;;;16.80;57.10;;;;;;10377032;28;20045;-60
2022/03/20 04:39:17;;;;;;;1.48;0.88;;;16.80;57.00;;;;;;10389843;28;20122;-60
2022/03/20 04:44:19;;;;;;;1.27;0.80;;;16.80;57.00;;;;;;10414500;28;20057;-59
2022/03/20 04:59:58;;;;;;;1.40;0.80;;;16.80;56.90;;;;;;10383122;28;20037;-59
2022/03/20 05:04:58;;;;;;;1.30;0.60;;;16.80;57.00;;;;;;10416699;28;20045;-59
2022/03/20 05:15:18;;;;;;;0.82;0.55;;;16.90;56.60;;;;;;10375275;28;20034;-60
2022/03/20 05:20:22;;;;;;;1.52;0.80;;;17.00;56.20;;;;;;10379357;28;20465;-60
2022/03/20 05:25:24;;;;;;;1.50;0.73;;;17.10;56.20;;;;;;10414930;28;20045;-59
2022/03/20 05:30:25;;;;;;;1.33;0.70;;;17.00;56.30;;;;;;10376679;28;20038;-59
2022/03/20 05:35:26;;;;;;;2.13;1.13;;;16.90;56.50;;;;;;10389056;28;20029;-59
2022/03/20 05:40:27;;;;;;;3.15;1.05;;;16.90;56.40;;;;;;10390045;28;20037;-60
2022/03/20 05:45:27;;;;;;;1.52;0.68;;;17.00;56.30;;;;;;10391645;28;20044;-60
2022/03/20 05:50:28;;;;;;;2.70;1.05;;;17.00;56.30;;;;;;10371639;28;20397;-60
2022/03/20 06:00:48;;;;;;;1.70;0.77;;;17.00;56.30;;;;;;10373842;28;20485;-60
2022/03/20 06:05:49;;;;;;;1.52;0.93;;;17.00;56.30;;;;;;10385509;28;20106;-59
2022/03/20 06:10:50;;;;;;;1.50;1.00;;;16.90;56.40;;;;;;10393899;28;20513;-59
2022/03/20 06:15:51;;;;;;;1.30;0.80;;;16.90;56.50;;;;;;10372948;28;20057;-59
2022/03/20 06:20:52;;;;;;;1.83;0.90;;;17.00;56.30;;;;;;10396052;28;20064;-59
2022/03/20 06:25:53;;;;;;;1.23;0.98;;;16.90;56.40;;;;;;10380237;28;20430;-59
2022/03/20 06:30:54;;;;;;;1.33;0.90;;;16.90;56.50;;;;;;10384416;28;20034;-60
2022/03/20 06:35:55;;;;;;;4.80;1.30;;;16.80;56.50;;;;;;10374129;28;20033;-62
2022/03/20 06:40:56;;;;;;;9.30;1.90;;;16.90;56.80;;;;;;10399808;28;20155;-59
2022/03/20 06:45:57;;;;;;;12.85;2.13;;;17.10;57.90;;;;;;10371949;28;20390;-56
2022/03/20 06:50:58;;;;;;;8.43;3.50;;;17.20;58.50;;;;;;10372027;28;20029;-60
2022/03/20 06:56:00;;;;;;;12.63;2.20;;;17.30;58.10;;;;;;10373899;28;20034;-59
2022/03/20 07:01:00;;;;;;;10.75;2.58;;;17.30;58.00;;;;;;10371985;28;20068;-56
2022/03/20 07:06:01;;;;;;;14.15;2.97;;;17.30;58.80;;;;;;10371359;28;20105;-58
2022/03/20 07:11:02;;;;;;;17.65;3.47;;;17.30;58.70;;;;;;10387713;28;20061;-58
2022/03/20 07:16:04;;;;;;;26.15;4.93;;;17.20;59.10;;;;;;10386662;28;20405;-59
2022/03/20 07:21:05;;;;;;;17.77;3.42;;;17.10;59.50;;;;;;10367892;28;20022;-60
2022/03/20 07:31:25;;;;;;;24.42;5.32;;;16.90;59.70;;;;;;10400733;28;20514;-58
2022/03/20 07:36:25;;;;;;;24.90;4.97;;;16.80;60.40;;;;;;10410911;28;20025;-58
2022/03/20 07:41:26;;;;;;;24.55;5.10;;;16.80;60.40;;;;;;10379070;28;20101;-58
2022/03/20 07:46:27;;;;;;;33.55;6.30;;;16.70;60.50;;;;;;10370732;28;20137;-58
2022/03/20 07:51:30;;;;;;;39.45;7.28;;;16.70;60.50;;;;;;10378694;28;20180;-57
2022/03/20 07:56:34;;;;;;;34.00;5.80;;;16.70;60.50;;;;;;10385229;28;20068;-59
2022/03/20 08:01:38;;;;;;;28.90;5.85;;;16.70;60.30;;;;;;10417973;28;20053;-61
2022/03/20 08:06:39;;;;;;;24.05;5.50;;;16.70;60.40;;;;;;10418543;28;20025;-60
2022/03/20 08:11:40;;;;;;;21.35;6.00;;;16.80;60.50;;;;;;10404555;28;21384;-57
2022/03/20 08:16:41;;;;;;;20.60;5.72;;;16.80;60.40;;;;;;10393431;28;20101;-58
2022/03/20 08:21:43;;;;;;;26.38;6.13;;;16.80;60.20;;;;;;10377621;28;20037;-59
2022/03/20 08:26:44;;;;;;;24.58;6.70;;;16.80;59.70;;;;;;10376814;28;20117;-59
2022/03/20 08:31:47;;;;;;;20.65;7.35;;;16.70;59.70;;;;;;10376930;28;20052;-58
2022/03/20 08:36:48;;;;;;;22.65;6.22;;;16.70;59.80;;;;;;10376638;28;20464;-58
2022/03/20 08:41:48;;;;;;;17.35;4.90;;;16.90;59.20;;;;;;10397823;28;20028;-59
2022/03/20 08:46:49;;;;;;;16.63;5.03;;;17.00;59.20;;;;;;10393188;28;20029;-59
2022/03/20 08:51:50;;;;;;;20.10;6.47;;;17.10;58.90;;;;;;10383654;28;20118;-57
2022/03/20 08:56:51;;;;;;;19.73;5.60;;;17.20;59.20;;;;;;10404090;28;20492;-59
2022/03/20 09:01:51;;;;;;;16.70;6.35;;;17.40;60.10;;;;;;10397742;28;20037;-58
2022/03/20 09:06:52;;;;;;;18.63;6.63;;;17.20;60.80;;;;;;10372646;28;20470;-59
2022/03/20 09:11:52;;;;;;;20.63;7.55;;;17.20;61.60;;;;;;10374142;28;20070;-59
2022/03/20 09:22:16;;;;;;;23.77;6.55;;;17.30;62.00;;;;;;10390847;28;20057;-58
2022/03/20 09:27:16;;;;;;;27.70;7.35;;;17.20;60.70;;;;;;10374405;28;20050;-57
2022/03/20 09:32:17;;;;;;;31.27;8.50;;;17.20;61.30;;;;;;10408755;28;20033;-58
2022/03/20 09:37:18;;;;;;;24.60;7.68;;;17.20;61.20;;;;;;10383718;28;20053;-58
2022/03/20 09:42:19;;;;;;;25.52;8.43;;;17.20;60.90;;;;;;10380609;28;20033;-59
2022/03/20 09:47:23;;;;;;;29.08;8.25;;;17.10;61.10;;;;;;10369863;28;20051;-61
2022/03/20 09:52:25;;;;;;;24.33;7.35;;;17.00;61.60;;;;;;10361348;28;20524;-61
2022/03/20 09:57:30;;;;;;;32.35;8.07;;;16.90;62.00;;;;;;10374980;28;20117;-63
2022/03/20 10:02:32;;;;;;;36.50;7.95;;;16.80;61.90;;;;;;10384813;28;20087;-61
2022/03/20 10:07:42;;;;;;;26.13;7.80;;;16.70;61.60;;;;;;10369649;28;20034;-60
2022/03/20 10:12:53;;;;;;;23.42;8.25;;;16.70;61.40;;;;;;10385397;28;20033;-60
2022/03/20 10:18:23;;;;;;;27.63;7.55;;;16.70;61.10;;;;;;10378286;28;20040;-60
2022/03/20 10:23:36;;;;;;;36.75;9.63;;;16.60;61.20;;;;;;10402725;28;20087;-60
2022/03/20 10:28:43;;;;;;;20.80;7.95;;;16.60;61.00;;;;;;10412552;28;20046;-60
2022/03/20 10:34:06;;;;;;;17.52;7.15;;;16.60;61.70;;;;;;10407529;28;20029;-60
2022/03/20 10:39:15;;;;;;;25.40;7.30;;;16.60;61.00;;;;;;10363920;28;20032;-60
2022/03/20 10:44:27;;;;;;;20.03;8.90;;;16.60;60.80;;;;;;10400562;28;20033;-61
2022/03/20 10:49:28;;;;;;;16.80;6.20;;;16.60;61.30;;;;;;10395672;28;20021;-61
2022/03/20 10:54:44;;;;;;;13.40;6.22;;;16.60;60.70;;;;;;10384996;28;20030;-61
2022/03/20 10:59:59;;;;;;;16.83;6.60;;;16.50;61.10;;;;;;10371122;28;20030;-61
2022/03/20 11:04:59;;;;;;;17.90;7.45;;;16.50;60.70;;;;;;10370281;28;20048;-61
2022/03/20 11:10:00;;;;;;;19.60;6.50;;;16.50;60.90;;;;;;10384031;28;20770;-60
2022/03/20 11:15:06;;;;;;;13.45;5.88;;;16.50;60.60;;;;;;10387601;28;20085;-61
2022/03/20 11:20:08;;;;;;;20.33;7.70;;;16.50;60.40;;;;;;10389267;28;20061;-59
2022/03/20 11:25:10;;;;;;;28.15;8.75;;;16.60;60.60;;;;;;10392935;28;20029;-62
2022/03/20 11:30:13;;;;;;;29.30;7.60;;;16.70;61.10;;;;;;10379173;28;20048;-62
2022/03/20 11:35:14;;;;;;;16.73;7.22;;;16.70;61.70;;;;;;10378348;28;20501;-61
2022/03/20 11:40:21;;;;;;;35.00;10.02;;;16.70;60.70;;;;;;10389227;28;20485;-62
2022/03/20 11:45:23;;;;;;;24.40;8.40;;;16.80;61.30;;;;;;10392056;28;20037;-61
2022/03/20 11:50:45;;;;;;;24.08;8.82;;;16.90;61.80;;;;;;10378937;28;20030;-61
2022/03/20 11:55:51;;;;;;;21.42;8.63;;;17.00;62.10;;;;;;10390949;28;20438;-62
2022/03/20 12:01:03;;;;;;;27.50;8.75;;;17.00;61.50;;;;;;10418332;28;20033;-60
2022/03/20 12:06:36;;;;;;;20.05;7.25;;;17.10;62.30;;;;;;10379793;28;20044;-59
2022/03/20 12:12:07;;;;;;;21.85;7.38;;;17.00;62.60;;;;;;10400804;28;20041;-61
2022/03/20 12:17:08;;;;;;;24.10;7.43;;;17.00;62.30;;;;;;10395602;28;20029;-60
2022/03/20 12:22:15;;;;;;;23.67;6.85;;;16.90;62.50;;;;;;10394440;28;20091;-61
2022/03/20 12:27:24;;;;;;;29.15;9.68;;;16.80;63.00;;;;;;10390954;28;20645;-61
2022/03/20 12:32:26;;;;;;;29.77;9.20;;;16.70;63.00;;;;;;10392596;28;20045;-65
2022/03/20 12:37:30;;;;;;;38.78;9.70;;;16.70;63.10;;;;;;10391193;28;20104;-61
2022/03/20 12:42:33;;;;;;;32.28;8.43;;;16.70;63.30;;;;;;10386644;28;20048;-62
2022/03/20 12:47:35;;;;;;;32.78;7.88;;;16.70;63.40;;;;;;10375541;28;20056;-62
2022/03/20 12:52:38;;;;;;;32.85;7.97;;;16.60;63.50;;;;;;10397861;28;20036;-62
2022/03/20 12:57:47;;;;;;;30.50;8.88;;;16.60;63.70;;;;;;10393339;28;20029;-62
2022/03/20 13:03:07;;;;;;;32.03;9.13;;;16.60;63.90;;;;;;10373105;28;20037;-62
2022/03/20 13:08:09;;;;;;;;;;;16.60;63.80;;;;;;10360290;28;20080;-62
2022/03/20 13:13:13;;;;;;;24.20;10.23;;;16.60;63.40;;;;;;10398108;28;20003;-63
2022/03/20 13:18:13;;;;;;;47.80;10.18;;;16.50;63.30;;;;;;10373359;28;20112;-62
2022/03/20 13:23:25;;;;;;;40.10;11.43;;;16.60;63.30;;;;;;10390161;28;20040;-60
2022/03/20 13:28:31;;;;;;;37.95;11.18;;;16.60;63.50;;;;;;10391391;28;20049;-62
2022/03/20 13:33:37;;;;;;;35.45;9.80;;;16.60;63.70;;;;;;10375387;28;20041;-62
2022/03/20 13:38:44;;;;;;;54.42;12.25;;;16.60;63.40;;;;;;10370333;28;20050;-61
2022/03/20 13:43:47;;;;;;;35.83;10.32;;;16.70;63.30;;;;;;10369609;28;20037;-62
2022/03/20 13:48:51;;;;;;;32.35;11.27;;;16.60;62.90;;;;;;10400772;28;20033;-63
2022/03/20 13:54:12;;;;;;;25.55;9.68;;;16.60;62.60;;;;;;10368993;28;20038;-62
2022/03/20 13:59:16;;;;;;;30.52;8.77;;;16.60;62.40;;;;;;10366819;28;20124;-63
2022/03/20 14:04:20;;;;;;;23.48;8.77;;;16.50;62.30;;;;;;10372008;28;20026;-63
2022/03/20 14:09:35;;;;;;;26.42;10.88;;;16.50;62.30;;;;;;10367658;28;20033;-63
2022/03/20 14:14:47;;;;;;;23.33;9.85;;;16.50;62.20;;;;;;10373398;28;20113;-63
2022/03/20 14:19:50;;;;;;;22.85;8.77;;;16.50;62.00;;;;;;10399557;28;20485;-62
2022/03/20 14:24:53;;;;;;;24.02;9.25;;;16.50;61.80;;;;;;10339367;28;20041;-63
2022/03/20 14:40:48;;;;;;;20.67;8.97;;;16.70;61.20;;;;;;10387933;28;20053;-63
2022/03/20 14:45:50;;;;;;;23.27;8.70;;;16.80;60.70;;;;;;10399690;28;20132;-62
2022/03/20 14:50:51;;;;;;;14.18;7.43;;;16.80;60.40;;;;;;10389366;28;20108;-60
2022/03/20 14:55:54;;;;;;;20.10;9.05;;;16.80;60.30;;;;;;10392909;28;20029;-62
2022/03/20 15:00:56;;;;;;;21.95;9.85;;;16.80;60.20;;;;;;10386199;28;20041;-63
2022/03/20 15:05:57;;;;;;;19.20;9.07;;;16.80;60.20;;;;;;10381758;28;20030;-63
2022/03/20 15:16:18;;;;;;;20.07;9.80;;;17.10;60.40;;;;;;10375856;28;20045;-60
2022/03/20 15:21:20;;;;;;;19.30;10.63;;;17.20;60.40;;;;;;10376653;28;20118;-61
2022/03/20 15:26:21;;;;;;;22.50;9.48;;;17.10;60.60;;;;;;10385254;28;20445;-61
2022/03/20 15:31:23;;;;;;;23.92;10.45;;;17.20;60.90;;;;;;10361688;28;20041;-62
2022/03/20 15:36:24;;;;;;;23.35;9.45;;;17.30;60.80;;;;;;10388636;28;20160;-60
2022/03/20 15:41:28;;;;;;;19.17;9.95;;;17.30;61.00;;;;;;10388323;28;20265;-61
2022/03/20 15:46:29;;;;;;;28.27;10.45;;;17.30;61.00;;;;;;10401058;28;20057;-61
2022/03/20 15:51:30;;;;;;;19.17;8.52;;;17.10;61.30;;;;;;10410794;28;20057;-63
2022/03/20 15:56:31;;;;;;;20.20;9.43;;;17.00;61.90;;;;;;10372927;28;20113;-62
2022/03/20 16:01:32;;;;;;;28.73;9.77;;;16.90;62.20;;;;;;10379654;28;20030;-63
2022/03/20 16:06:32;;;;;;;25.85;9.90;;;17.00;62.60;;;;;;10390694;28;20092;-63
2022/03/20 16:11:34;;;;;;;24.48;10.40;;;16.90;62.50;;;;;;10405099;28;20470;-62
2022/03/20 16:16:35;;;;;;;39.83;12.60;;;17.00;62.30;;;;;;10384907;28;20107;-62
2022/03/20 16:21:35;;;;;;;37.63;12.20;;;16.90;62.70;;;;;;10381183;28;20108;-61
2022/03/20 16:32:06;;;;;;;33.17;11.95;;;16.90;62.60;;;;;;10395417;28;20049;-61
2022/03/20 16:37:07;;;;;;;;;;;17.00;62.50;;;;;;10396394;28;20152;-64
2022/03/20 16:42:08;;;;;;;34.95;12.57;;;17.20;62.00;;;;;;10414596;28;20385;-64
2022/03/20 16:47:09;;;;;;;52.40;13.77;;;17.30;64.80;;;;;;10415325;28;20099;-64
2022/03/20 16:52:10;;;;;;;34.17;15.25;;;17.50;69.10;;;;;;10413895;28;20038;-64
2022/03/20 16:57:11;;;;;;;35.13;15.23;;;17.50;72.50;;;;;;10403197;28;20025;-64
2022/03/20 17:02:12;;;;;;;28.60;14.27;;;17.50;70.60;;;;;;10390423;28;20153;-64
2022/03/20 17:07:12;;;;;;;24.45;14.52;;;17.90;69.30;;;;;;10390621;28;20037;-63
2022/03/20 17:12:14;;;;;;;22.42;15.45;;;18.00;68.70;;;;;;10376591;28;20488;-63
2022/03/20 17:17:16;;;;;;;24.50;14.05;;;18.10;69.60;;;;;;10399422;28;20021;-61
2022/03/20 17:22:16;;;;;;;26.73;13.20;;;18.10;64.70;;;;;;10374119;28;20597;-64
2022/03/20 17:27:17;;;;;;;15.98;13.45;;;18.10;63.00;;;;;;10383452;28;20045;-62
2022/03/20 17:32:18;;;;;;;18.50;12.32;;;18.00;62.30;;;;;;10377090;28;20107;-62
2022/03/20 17:37:19;;;;;;;23.50;11.93;;;18.00;62.40;;;;;;10411763;28;20029;-62
2022/03/20 17:42:20;;;;;;;24.17;11.98;;;18.10;62.60;;;;;;10392320;28;20033;-62
2022/03/20 17:47:23;;;;;;;17.48;12.35;;;18.00;62.20;;;;;;10376513;28;20061;-62
2022/03/20 17:52:28;;;;;;;23.67;12.55;;;17.90;62.60;;;;;;10384394;28;20042;-62
2022/03/20 17:57:29;;;;;;;16.77;11.70;;;17.80;62.70;;;;;;10375897;28;20113;-62
2022/03/20 18:07:53;;;;;;;17.08;11.48;;;17.60;62.90;;;;;;10382421;28;21337;-61
2022/03/20 18:12:57;;;;;;;15.70;11.32;;;17.50;62.90;;;;;;10389767;28;20053;-62
2022/03/20 18:17:58;;;;;;;14.38;10.77;;;17.40;62.80;;;;;;10369351;28;20541;-62
2022/03/20 18:22:59;;;;;;;16.25;10.68;;;17.40;62.80;;;;;;10392598;28;20041;-63
2022/03/20 18:28:06;;;;;;;20.70;12.48;;;17.30;62.80;;;;;;10370270;28;20060;-62
2022/03/20 18:33:08;;;;;;;16.50;10.80;;;17.30;62.70;;;;;;10387100;28;20144;-62
2022/03/20 18:38:09;;;;;;;16.92;10.70;;;17.20;62.60;;;;;;10369669;28;20037;-63
2022/03/20 18:43:10;;;;;;;14.90;10.60;;;17.20;62.70;;;;;;10366764;28;20030;-62
2022/03/20 18:48:11;;;;;;;14.98;10.43;;;17.20;63.00;;;;;;10405020;28;20087;-63
2022/03/20 18:53:12;;;;;;;14.98;9.63;;;17.10;63.00;;;;;;10370909;28;20030;-62
2022/03/20 18:58:12;;;;;;;15.80;9.98;;;17.00;63.10;;;;;;10367634;28;20072;-62
2022/03/20 19:03:15;;;;;;;16.67;10.48;;;16.90;63.30;;;;;;10396811;28;20061;-62
2022/03/20 19:08:17;;;;;;;16.02;9.52;;;16.90;64.00;;;;;;10372599;28;20563;-61
2022/03/20 19:13:19;;;;;;;14.73;9.80;;;16.90;64.60;;;;;;10378144;28;20120;-63
2022/03/20 19:18:20;;;;;;;11.57;9.00;;;16.80;64.80;;;;;;10387149;28;20183;-62
2022/03/20 19:23:21;;;;;;;12.65;9.45;;;16.80;64.80;;;;;;10382801;28;20524;-62
2022/03/20 19:28:22;;;;;;;11.65;8.90;;;16.80;64.80;;;;;;10390074;28;20100;-62
2022/03/20 19:33:23;;;;;;;15.00;9.65;;;16.80;64.70;;;;;;10365688;28;20062;-62
2022/03/20 19:43:42;;;;;;;17.63;10.03;;;16.80;63.80;;;;;;10385870;28;20050;-62
2022/03/20 19:48:43;;;;;;;13.02;9.07;;;16.80;64.60;;;;;;10389153;28;20108;-62
2022/03/20 19:53:45;;;;;;;13.60;10.02;;;16.80;64.60;;;;;;10380663;28;20121;-62
2022/03/20 19:58:46;;;;;;;13.13;10.27;;;16.80;64.70;;;;;;10418460;28;20018;-62
2022/03/20 20:03:48;;;;;;;13.85;9.88;;;16.70;64.60;;;;;;10384691;28;20029;-62
2022/03/20 20:08:49;;;;;;;12.98;10.15;;;16.70;64.70;;;;;;10418365;28;20097;-62
2022/03/20 20:19:08;;;;;;;17.13;10.97;;;16.70;64.10;;;;;;10415095;28;20038;-62
2022/03/20 20:24:10;;;;;;;14.55;11.25;;;16.70;64.80;;;;;;10388366;28;20058;-61
2022/03/20 20:29:11;;;;;;;11.30;9.85;;;16.70;65.00;;;;;;10375002;28;20525;-61
2022/03/20 20:34:12;;;;;;;14.32;10.77;;;16.70;64.90;;;;;;10380288;28;20030;-62
2022/03/20 20:39:13;;;;;;;12.82;10.63;;;16.80;64.40;;;;;;10368722;28;20499;-62
2022/03/20 20:44:16;;;;;;;14.23;10.43;;;16.90;63.30;;;;;;10375120;28;20040;-62
2022/03/20 20:49:17;;;;;;;14.02;10.00;;;16.80;62.90;;;;;;10373193;28;20030;-62
2022/03/20 20:54:18;;;;;;;11.73;9.55;;;16.80;63.30;;;;;;10385771;28;20480;-62
2022/03/20 20:59:19;;;;;;;12.07;9.25;;;16.90;62.50;;;;;;10388764;28;20021;-63
2022/03/20 21:04:20;;;;;;;14.52;10.32;;;16.90;62.20;;;;;;10371414;28;20059;-62
2022/03/20 21:14:52;;;;;;;10.60;9.15;;;17.00;61.80;;;;;;10314528;28;20049;-62
2022/03/20 21:19:53;;;;;;;15.18;10.50;;;17.00;61.60;;;;;;10385151;28;20060;-62
2022/03/20 21:24:53;;;;;;;10.73;9.50;;;16.90;61.40;;;;;;10415199;28;20029;-62
2022/03/20 21:29:54;;;;;;;11.10;8.80;;;16.90;61.40;;;;;;10415393;28;20084;-62
2022/03/20 21:34:55;;;;;;;10.27;9.00;;;16.90;61.30;;;;;;10406865;28;20091;-62
2022/03/20 21:39:56;;;;;;;11.18;9.90;;;17.00;61.00;;;;;;10387092;28;20073;-62
2022/03/20 21:44:57;;;;;;;9.48;8.52;;;17.00;61.00;;;;;;10414417;28;20180;-62
2022/03/20 21:49:57;;;;;;;11.25;9.48;;;17.00;60.70;;;;;;10414932;28;20355;-62
2022/03/20 21:54:58;;;;;;;10.40;8.60;;;17.00;60.60;;;;;;10387520;28;20077;-62
2022/03/20 21:59:59;;;;;;;10.80;9.70;;;17.00;60.50;;;;;;10373615;28;20065;-62
2022/03/20 22:04:59;;;;;;;10.70;9.02;;;17.10;60.40;;;;;;10387785;28;20440;-62
2022/03/20 22:10:00;;;;;;;11.95;8.55;;;17.10;60.20;;;;;;10383253;28;20439;-62
2022/03/20 22:15:01;;;;;;;11.00;8.77;;;17.00;60.20;;;;;;10412905;28;20061;-62
2022/03/20 22:20:04;;;;;;;10.75;8.80;;;17.00;60.20;;;;;;10413902;28;20416;-62
2022/03/20 22:25:07;;;;;;;11.13;9.75;;;17.00;60.10;;;;;;10412882;28;20033;-62
2022/03/20 22:30:10;;;;;;;10.50;8.95;;;17.00;59.90;;;;;;10395410;28;20568;-62
2022/03/20 22:40:32;;;;;;;9.43;8.30;;;17.00;59.80;;;;;;10372053;28;20460;-62
2022/03/20 22:45:32;;;;;;;11.70;8.68;;;17.10;59.60;;;;;;10373183;28;20034;-62
2022/03/20 22:50:33;;;;;;;10.57;9.02;;;17.00;59.60;;;;;;10412609;28;20120;-62
2022/03/20 22:55:34;;;;;;;10.90;9.30;;;17.00;59.50;;;;;;10381045;28;20034;-62
2022/03/20 23:00:35;;;;;;;11.55;9.60;;;17.00;59.50;;;;;;10371532;28;20025;-62
2022/03/20 23:05:36;;;;;;;11.25;8.95;;;17.00;59.30;;;;;;10383976;28;20449;-62
2022/03/20 23:10:37;;;;;;;8.77;7.65;;;17.00;59.30;;;;;;10381928;28;20029;-62
2022/03/20 23:15:38;;;;;;;10.05;8.98;;;17.00;59.20;;;;;;10411210;28;20046;-62
2022/03/20 23:20:39;;;;;;;9.73;8.75;;;17.10;59.00;;;;;;10385977;28;20034;-62
2022/03/20 23:25:40;;;;;;;10.40;9.18;;;17.00;58.90;;;;;;10379483;28;20037;-62
2022/03/20 23:30:40;;;;;;;10.13;9.02;;;17.00;58.90;;;;;;10379517;28;20046;-62
2022/03/20 23:35:46;;;;;;;8.95;8.10;;;17.00;58.90;;;;;;10379204;28;20121;-62
2022/03/20 23:46:09;;;;;;;9.98;8.80;;;17.00;58.60;;;;;;10380083;28;20050;-62
2022/03/20 23:51:10;;;;;;;9.70;8.70;;;17.00;58.60;;;;;;10374583;28;20041;-62
2022/03/20 23:56:11;;;;;;;9.75;8.75;;;17.00;58.60;;;;;;10382989;28;20033;-62
